Time;durP1;ratioP1;P1;durP2;ratioP2;P2;SDS_P1;SDS_P2;PMS_P1;PMS_P2;Temp;Humidity;BMP_temperature;BMP_pressure;BME280_temperature;BME280_humidity;BME280_pressure;Samples;Min_cycle;Max_cycle;Signal;HPM_P1;HPM_P2
2024/02/29 00:03:16;;;;;;;11.68;6.75;;;16.10;99.90;;;;;;10484544;28;20064;-58
2024/02/29 00:08:18;;;;;;;16.47;8.90;;;15.90;99.90;;;;;;10489543;28;20188;-58
2024/02/29 00:13:21;;;;;;;17.73;10.17;;;15.20;99.90;;;;;;10487878;28;20060;-58
2024/02/29 00:18:23;;;;;;;14.25;9.63;;;15.90;99.90;;;;;;10486128;28;20052;-59
2024/02/29 00:23:25;;;;;;;15.93;9.63;;;16.20;99.90;;;;;;10485519;28;20055;-57
2024/02/29 00:28:29;;;;;;;33.43;10.73;;;16.40;99.90;;;;;;10485442;28;20467;-57
2024/02/29 00:33:31;;;;;;;18.90;11.40;;;16.40;99.90;;;;;;10497261;28;20470;-59
2024/02/29 00:38:33;;;;;;;18.13;10.50;;;16.20;99.90;;;;;;10493193;28;20048;-58
2024/02/29 00:43:38;;;;;;;23.33;11.63;;;16.20;99.90;;;;;;10488020;28;20460;-58
2024/02/29 00:48:40;;;;;;;19.70;10.55;;;16.40;99.90;;;;;;10492552;28;20938;-58
2024/02/29 00:53:42;;;;;;;19.48;9.43;;;16.60;99.90;;;;;;10493319;28;20056;-60
2024/02/29 00:58:45;;;;;;;21.00;11.38;;;16.70;99.90;;;;;;10491040;28;20052;-58
2024/02/29 01:03:47;;;;;;;18.88;9.57;;;16.50;99.90;;;;;;10499185;28;20431;-58
2024/02/29 01:08:49;;;;;;;20.30;9.45;;;16.40;99.90;;;;;;10498720;28;20411;-57
2024/02/29 01:13:53;;;;;;;17.07;9.80;;;16.60;99.90;;;;;;10494648;28;20063;-55
2024/02/29 01:18:55;;;;;;;13.90;7.88;;;16.20;99.90;;;;;;10496193;28;20051;-58
2024/02/29 01:23:57;;;;;;;15.43;8.93;;;16.60;99.90;;;;;;10492914;28;20491;-57
2024/02/29 01:29:00;;;;;;;15.45;9.35;;;16.50;99.90;;;;;;10489775;28;20052;-58
2024/02/29 01:34:02;;;;;;;16.08;8.45;;;16.60;99.90;;;;;;10489045;28;20048;-58
2024/02/29 01:39:04;;;;;;;18.10;8.47;;;16.50;99.90;;;;;;10490296;28;20818;-57
2024/02/29 01:44:08;;;;;;;16.63;8.40;;;16.40;99.90;;;;;;10496745;28;20052;-59
2024/02/29 01:49:11;;;;;;;18.67;10.77;;;16.60;99.90;;;;;;10494246;28;20112;-55
2024/02/29 01:54:13;;;;;;;14.88;7.90;;;16.40;99.90;;;;;;10495111;28;20076;-57
2024/02/29 01:59:18;;;;;;;12.77;8.98;;;16.30;99.90;;;;;;10493184;28;20055;-56
2024/02/29 02:04:20;;;;;;;14.02;7.35;;;16.30;99.90;;;;;;10489114;28;20052;-55
2024/02/29 02:09:22;;;;;;;12.77;8.02;;;16.50;99.90;;;;;;10483806;28;20052;-57
2024/02/29 02:14:25;;;;;;;14.57;7.75;;;16.20;99.90;;;;;;10489010;28;20114;-57
2024/02/29 02:19:28;;;;;;;12.88;7.70;;;16.20;99.90;;;;;;10494079;28;20040;-58
2024/02/29 02:24:32;;;;;;;12.60;7.20;;;16.20;99.90;;;;;;10490745;28;20056;-56
2024/02/29 02:29:34;;;;;;;16.88;7.43;;;16.40;99.90;;;;;;10491058;28;20555;-56
2024/02/29 02:34:36;;;;;;;18.43;9.97;;;16.30;99.90;;;;;;10491253;28;20051;-58
2024/02/29 02:39:39;;;;;;;14.47;5.83;;;15.80;99.90;;;;;;10492241;28;20164;-58
2024/02/29 02:44:41;;;;;;;15.63;9.50;;;16.20;99.90;;;;;;10489584;28;20052;-55
2024/02/29 02:49:43;;;;;;;15.27;7.57;;;16.00;99.90;;;;;;10488931;28;20047;-56
2024/02/29 02:54:46;;;;;;;17.43;8.80;;;16.00;99.90;;;;;;10477743;28;20060;-56
2024/02/29 02:59:49;;;;;;;11.40;7.65;;;15.90;99.90;;;;;;10482034;28;20082;-56
2024/02/29 03:04:51;;;;;;;10.18;7.13;;;16.00;99.90;;;;;;10488482;28;20059;-57
2024/02/29 03:09:54;;;;;;;11.53;6.57;;;16.10;99.90;;;;;;10486309;28;20052;-55
2024/02/29 03:14:56;;;;;;;11.82;8.52;;;15.70;99.90;;;;;;10487740;28;20579;-59
2024/02/29 03:19:58;;;;;;;12.37;6.90;;;15.70;99.90;;;;;;10485227;28;20072;-60
2024/02/29 03:25:01;;;;;;;14.20;8.57;;;15.50;99.90;;;;;;10489241;28;20052;-57
2024/02/29 03:30:04;;;;;;;10.63;6.93;;;15.80;99.90;;;;;;10491035;28;20162;-56
2024/02/29 03:35:06;;;;;;;10.68;7.72;;;15.90;99.90;;;;;;10488278;28;20053;-57
2024/02/29 03:40:10;;;;;;;11.38;5.53;;;15.80;99.90;;;;;;10503318;28;20131;-59
2024/02/29 03:45:13;;;;;;;12.48;6.90;;;16.30;99.90;;;;;;10487545;28;20871;-56
2024/02/29 03:50:15;;;;;;;8.87;5.93;;;16.00;99.90;;;;;;10483862;28;20061;-56
2024/02/29 03:55:18;;;;;;;12.13;7.65;;;16.10;99.90;;;;;;10487837;28;20478;-54
2024/02/29 04:15:31;;;;;;;10.57;6.85;;;16.00;99.90;;;;;;10555732;27;21007;-59
2024/02/29 04:20:33;;;;;;;14.77;8.45;;;15.80;99.90;;;;;;10561624;27;20044;-58
2024/02/29 04:25:35;;;;;;;11.37;7.13;;;15.50;99.90;;;;;;10566597;27;20062;-58
2024/02/29 04:30:39;;;;;;;9.13;5.87;;;15.30;99.90;;;;;;10564675;28;20044;-56
2024/02/29 04:35:41;;;;;;;8.43;5.93;;;15.60;99.90;;;;;;10561162;28;20144;-56
2024/02/29 04:40:43;;;;;;;11.98;9.15;;;15.60;99.90;;;;;;10563121;27;20067;-56
2024/02/29 04:45:46;;;;;;;13.65;8.70;;;16.00;99.90;;;;;;10563113;27;20052;-55
2024/02/29 04:50:48;;;;;;;14.90;9.88;;;15.60;99.90;;;;;;10561419;27;20100;-56
2024/02/29 04:55:50;;;;;;;13.32;8.43;;;14.90;99.90;;;;;;10565789;27;20581;-58
2024/02/29 05:00:54;;;;;;;10.50;8.20;;;14.80;99.90;;;;;;10556944;28;20058;-54
2024/02/29 05:05:56;;;;;;;9.52;7.38;;;15.60;99.90;;;;;;10563400;28;20501;-59
2024/02/29 05:10:58;;;;;;;12.33;5.67;;;15.60;99.90;;;;;;10563142;28;20148;-60
2024/02/29 05:16:04;;;;;;;10.23;6.35;;;16.20;99.90;;;;;;10561154;28;20084;-59
2024/02/29 05:21:06;;;;;;;11.20;5.80;;;16.20;99.90;;;;;;10562874;27;20863;-58
2024/02/29 05:26:09;;;;;;;6.50;4.07;;;16.40;99.90;;;;;;10535716;27;20055;-59
2024/02/29 05:31:12;;;;;;;11.48;6.70;;;16.40;99.90;;;;;;10533723;28;20501;-57
2024/02/29 05:36:15;;;;;;;12.40;6.82;;;16.30;99.90;;;;;;10535587;28;22622;-57
2024/02/29 05:41:18;;;;;;;10.07;6.32;;;16.40;99.90;;;;;;10539434;28;20056;-58
2024/02/29 05:46:22;;;;;;;10.00;4.93;;;16.40;99.90;;;;;;10533466;28;20052;-58
2024/02/29 05:51:25;;;;;;;7.15;5.05;;;16.70;99.90;;;;;;10530693;28;20491;-58
2024/02/29 05:56:28;;;;;;;6.57;4.72;;;16.90;99.90;;;;;;10535119;28;20055;-57
2024/02/29 06:01:32;;;;;;;6.47;5.07;;;17.00;99.90;;;;;;10531050;28;20051;-57
2024/02/29 06:06:34;;;;;;;5.57;4.65;;;17.10;99.90;;;;;;10530233;28;20044;-56
2024/02/29 06:11:36;;;;;;;5.75;4.75;;;16.90;99.90;;;;;;10530837;28;20537;-56
2024/02/29 06:16:39;;;;;;;4.30;3.90;;;17.00;99.90;;;;;;10536803;28;21140;-59
2024/02/29 06:21:41;;;;;;;11.00;5.25;;;15.90;99.90;;;;;;10525431;28;20415;-55
2024/02/29 06:26:43;;;;;;;7.47;5.57;;;16.70;99.90;;;;;;10527103;28;20389;-56
2024/02/29 06:31:47;;;;;;;5.80;4.32;;;16.40;99.90;;;;;;10527181;28;20048;-58
2024/02/29 06:36:49;;;;;;;8.15;4.97;;;17.70;99.90;;;;;;10521986;28;20166;-57
2024/02/29 06:41:52;;;;;;;6.20;5.03;;;17.20;99.90;;;;;;10526532;28;20079;-56
2024/02/29 06:46:55;;;;;;;10.63;6.88;;;17.10;99.90;;;;;;10539126;28;20066;-57
2024/02/29 06:51:57;;;;;;;7.00;5.30;;;16.90;99.90;;;;;;10533154;28;20062;-55
2024/02/29 06:56:59;;;;;;;7.80;4.10;;;16.60;99.90;;;;;;10538187;28;20067;-58
2024/02/29 07:02:03;;;;;;;6.65;4.70;;;16.60;99.90;;;;;;10531354;28;21204;-57
2024/02/29 07:07:07;;;;;;;10.70;6.35;;;16.20;99.90;;;;;;10526707;28;20861;-56
2024/02/29 07:12:10;;;;;;;8.10;4.88;;;15.70;99.90;;;;;;10526181;28;20054;-56
2024/02/29 07:17:17;;;;;;;11.05;7.32;;;15.70;99.90;;;;;;10530156;28;20134;-57
2024/02/29 07:22:19;;;;;;;8.50;5.90;;;16.30;99.90;;;;;;10523410;28;21303;-55
2024/02/29 07:27:22;;;;;;;5.72;4.13;;;16.40;99.90;;;;;;10528777;28;20120;-55
2024/02/29 07:32:26;;;;;;;7.28;5.15;;;16.40;99.90;;;;;;10523891;28;21109;-54
2024/02/29 07:37:29;;;;;;;6.57;4.05;;;16.80;99.90;;;;;;10522028;28;20044;-53
2024/02/29 07:42:32;;;;;;;10.00;5.40;;;16.80;99.90;;;;;;10521250;28;20055;-57
2024/02/29 07:47:39;;;;;;;10.10;7.43;;;16.90;99.90;;;;;;10523234;28;20415;-55
2024/02/29 07:52:41;;;;;;;9.88;6.07;;;16.10;99.90;;;;;;10522594;28;20044;-57
2024/02/29 07:57:43;;;;;;;7.87;6.17;;;16.30;99.90;;;;;;10525341;28;20166;-58
2024/02/29 08:02:47;;;;;;;11.75;6.10;;;16.50;99.90;;;;;;10523979;28;20070;-58
2024/02/29 08:07:49;;;;;;;8.68;5.07;;;16.00;99.90;;;;;;10520431;28;20364;-57
2024/02/29 08:12:51;;;;;;;6.63;4.37;;;16.50;99.90;;;;;;10523203;28;20058;-57
2024/02/29 08:17:55;;;;;;;6.35;4.45;;;16.80;99.90;;;;;;10519366;28;20055;-59
2024/02/29 08:22:57;;;;;;;8.48;5.55;;;16.60;99.90;;;;;;10521995;28;20047;-59
2024/02/29 08:27:59;;;;;;;10.25;6.40;;;15.90;99.90;;;;;;10522017;28;20770;-58
2024/02/29 08:33:03;;;;;;;8.45;6.43;;;16.50;99.90;;;;;;10518303;28;20838;-58
2024/02/29 08:38:05;;;;;;;13.93;6.35;;;15.10;99.90;;;;;;10516290;28;20071;-56
2024/02/29 08:43:07;;;;;;;5.97;5.38;;;16.10;99.90;;;;;;10511781;28;20527;-58
2024/02/29 08:48:12;;;;;;;6.77;4.93;;;16.30;99.90;;;;;;10520567;28;20047;-57
2024/02/29 08:53:14;;;;;;;6.95;4.18;;;16.70;99.90;;;;;;10521682;28;20051;-55
2024/02/29 08:58:16;;;;;;;8.75;5.85;;;16.70;99.90;;;;;;10519487;28;20048;-54
2024/02/29 09:03:20;;;;;;;3.80;3.00;;;16.60;99.90;;;;;;10528350;28;20043;-55
2024/02/29 09:08:22;;;;;;;6.65;5.03;;;16.90;99.90;;;;;;10526143;28;20470;-58
2024/02/29 09:13:24;;;;;;;7.10;4.77;;;16.20;99.90;;;;;;10524752;28;20043;-58
2024/02/29 09:18:28;;;;;;;9.80;4.78;;;16.70;99.90;;;;;;10522386;28;20473;-53
2024/02/29 09:23:30;;;;;;;9.15;5.55;;;16.70;99.90;;;;;;10524684;28;20054;-51
2024/02/29 09:28:32;;;;;;;7.78;4.47;;;17.10;99.90;;;;;;10527492;28;20059;-57
2024/02/29 09:33:35;;;;;;;7.70;4.63;;;16.90;99.90;;;;;;10526100;28;20067;-53
2024/02/29 09:38:37;;;;;;;10.30;5.93;;;16.80;99.90;;;;;;10528191;28;20055;-56
2024/02/29 09:43:43;;;;;;;6.68;5.13;;;16.60;99.90;;;;;;10529481;28;20039;-56
2024/02/29 09:48:48;;;;;;;9.05;5.60;;;17.00;99.90;;;;;;10531401;28;20196;-57
2024/02/29 09:53:53;;;;;;;9.50;4.28;;;16.70;99.90;;;;;;10529217;28;20138;-55
2024/02/29 09:58:56;;;;;;;6.43;5.18;;;17.10;99.90;;;;;;10524906;28;20148;-54
2024/02/29 10:04:01;;;;;;;8.35;4.78;;;16.60;99.90;;;;;;10531785;28;20145;-53
2024/02/29 10:09:04;;;;;;;12.98;5.07;;;16.80;99.90;;;;;;10528164;28;20919;-56
2024/02/29 10:14:06;;;;;;;9.75;6.43;;;16.30;99.90;;;;;;10533589;28;20139;-52
2024/02/29 10:19:14;;;;;;;5.37;4.60;;;16.20;99.90;;;;;;10532226;28;20513;-54
2024/02/29 10:24:19;;;;;;;6.13;4.45;;;16.20;99.90;;;;;;10535058;28;20474;-55
2024/02/29 10:29:21;;;;;;;8.50;4.75;;;16.70;99.90;;;;;;10531396;28;20470;-54
2024/02/29 10:34:25;;;;;;;5.27;3.87;;;16.80;99.90;;;;;;10527034;28;20750;-54
2024/02/29 10:39:27;;;;;;;6.63;3.67;;;16.80;99.90;;;;;;10525228;28;20039;-56
2024/02/29 10:44:33;;;;;;;4.93;3.70;;;16.60;99.90;;;;;;10528308;28;21382;-53
2024/02/29 10:49:45;;;;;;;4.57;3.67;;;16.50;99.90;;;;;;10520528;28;20828;-55
2024/02/29 10:54:57;;;;;;;3.70;2.87;;;16.50;99.90;;;;;;10526359;28;20039;-54
2024/02/29 11:00:02;;;;;;;4.40;3.35;;;16.60;99.90;;;;;;10521675;28;20098;-55
2024/02/29 11:05:07;;;;;;;8.15;4.60;;;16.70;99.90;;;;;;10526181;28;20185;-56
2024/02/29 11:10:10;;;;;;;4.63;3.58;;;16.90;99.90;;;;;;10518342;28;20128;-56
2024/02/29 11:15:12;;;;;;;4.50;3.92;;;16.20;99.90;;;;;;10512438;28;20078;-55
2024/02/29 11:20:23;;;;;;;43.67;4.47;;;15.60;99.90;;;;;;10522956;28;20047;-54
2024/02/29 11:25:29;;;;;;;5.38;3.42;;;16.50;99.90;;;;;;10523535;28;20108;-56
2024/02/29 11:30:32;;;;;;;5.90;3.53;;;16.70;99.90;;;;;;10519832;28;20052;-55
2024/02/29 11:35:35;;;;;;;;;;;16.50;99.90;;;;;;10509308;28;20605;-55
2024/02/29 11:40:37;;;;;;;4.43;3.63;;;16.50;99.90;;;;;;10523103;28;20428;-55
2024/02/29 11:45:39;;;;;;;5.50;4.07;;;16.60;99.90;;;;;;10513261;28;20082;-55
2024/02/29 11:50:43;;;;;;;4.20;3.63;;;16.60;99.90;;;;;;10523118;27;20055;-56
2024/02/29 11:55:45;;;;;;;5.63;4.60;;;17.20;99.90;;;;;;10524890;28;20558;-55
2024/02/29 12:00:48;;;;;;;6.15;4.72;;;17.00;99.90;;;;;;10519840;28;20059;-57
2024/02/29 12:05:53;;;;;;;5.82;4.18;;;17.10;99.90;;;;;;10521944;28;22636;-53
2024/02/29 12:10:58;;;;;;;4.68;3.42;;;17.30;99.90;;;;;;10525647;28;20338;-55
2024/02/29 12:16:00;;;;;;;7.05;4.90;;;17.40;99.90;;;;;;10525503;28;20124;-55
2024/02/29 12:21:04;;;;;;;6.40;4.57;;;17.30;99.90;;;;;;10521950;28;20048;-55
2024/02/29 12:26:08;;;;;;;7.65;4.90;;;17.20;99.90;;;;;;10529808;28;20094;-52
2024/02/29 12:31:10;;;;;;;7.40;5.10;;;17.40;99.90;;;;;;10527304;28;20194;-54
2024/02/29 12:36:15;;;;;;;8.00;5.23;;;17.40;99.90;;;;;;10529116;28;20052;-51
2024/02/29 12:41:20;;;;;;;9.02;4.60;;;17.20;99.90;;;;;;10530101;28;20893;-55
2024/02/29 12:46:26;;;;;;;7.63;4.45;;;17.20;99.90;;;;;;10528838;28;20056;-56
2024/02/29 12:51:29;;;;;;;7.57;4.25;;;17.20;99.90;;;;;;10532680;28;20048;-53
2024/02/29 12:56:31;;;;;;;5.70;4.15;;;16.90;99.90;;;;;;10536741;28;20118;-55
2024/02/29 13:01:35;;;;;;;6.70;4.57;;;17.10;99.90;;;;;;10533777;28;20055;-52
2024/02/29 13:06:38;;;;;;;3.78;3.38;;;17.20;99.90;;;;;;10533046;28;20061;-57
2024/02/29 13:11:40;;;;;;;7.00;3.63;;;17.20;99.90;;;;;;10532828;28;20536;-53
2024/02/29 13:16:43;;;;;;;5.70;3.85;;;17.30;99.90;;;;;;10529658;28;20089;-57
2024/02/29 13:21:46;;;;;;;3.40;2.63;;;17.30;99.90;;;;;;10531849;28;20055;-56
2024/02/29 13:26:49;;;;;;;7.05;2.72;;;17.40;99.90;;;;;;10531478;28;20514;-53
2024/02/29 13:31:51;;;;;;;4.75;2.63;;;17.40;99.90;;;;;;10531448;28;20048;-57
2024/02/29 13:36:54;;;;;;;3.03;1.90;;;17.20;99.90;;;;;;10532648;28;20055;-56
2024/02/29 13:41:57;;;;;;;4.35;2.67;;;17.00;99.90;;;;;;10527758;28;20076;-57
2024/02/29 13:46:59;;;;;;;2.05;1.88;;;17.00;99.90;;;;;;10527291;28;21326;-56
2024/02/29 13:52:02;;;;;;;2.90;1.98;;;17.40;99.90;;;;;;10536902;28;20104;-55
2024/02/29 13:57:04;;;;;;;4.20;2.03;;;17.20;99.90;;;;;;10531924;28;20047;-57
2024/02/29 14:02:07;;;;;;;2.95;2.00;;;17.20;99.90;;;;;;10525798;28;20066;-52
2024/02/29 14:07:12;;;;;;;3.08;1.73;;;17.50;99.90;;;;;;10530757;28;20097;-55
2024/02/29 14:12:25;;;;;;;3.47;2.00;;;17.60;99.90;;;;;;10523531;28;20056;-50
2024/02/29 14:17:27;;;;;;;4.22;1.70;;;17.60;99.90;;;;;;10519150;28;20073;-53
2024/02/29 14:22:31;;;;;;;2.13;1.83;;;17.70;99.90;;;;;;10528959;28;20052;-56
2024/02/29 14:27:34;;;;;;;2.67;1.50;;;17.80;99.90;;;;;;10525847;28;20043;-55
2024/02/29 14:32:36;;;;;;;1.98;1.55;;;17.80;99.90;;;;;;10526232;28;20040;-56
2024/02/29 14:37:40;;;;;;;1.60;1.50;;;17.60;99.90;;;;;;10523539;28;20181;-53
2024/02/29 14:42:42;;;;;;;7.15;3.40;;;17.40;99.90;;;;;;10522496;28;20058;-55
2024/02/29 14:47:44;;;;;;;7.43;2.50;;;17.60;99.90;;;;;;10523379;28;20090;-55
2024/02/29 14:52:48;;;;;;;3.53;2.30;;;17.80;99.90;;;;;;10522274;28;20047;-57
2024/02/29 14:57:50;;;;;;;5.82;1.95;;;17.70;99.90;;;;;;10517193;28;20062;-54
2024/02/29 15:02:53;;;;;;;2.65;1.88;;;17.70;99.90;;;;;;10525911;28;20056;-54
2024/02/29 15:07:57;;;;;;;2.33;1.77;;;17.90;99.90;;;;;;10524714;28;22543;-56
2024/02/29 15:12:59;;;;;;;5.05;2.60;;;17.90;99.90;;;;;;10525975;28;20067;-51
2024/02/29 15:18:01;;;;;;;3.13;2.42;;;18.00;99.90;;;;;;10517167;28;21195;-55
2024/02/29 15:23:05;;;;;;;3.55;2.50;;;17.90;99.90;;;;;;10525326;28;20055;-56
2024/02/29 15:28:09;;;;;;;2.63;1.70;;;17.70;99.90;;;;;;10521527;28;20166;-54
2024/02/29 15:33:11;;;;;;;2.75;2.28;;;17.90;99.90;;;;;;10520563;28;20048;-57
2024/02/29 15:38:16;;;;;;;4.00;2.53;;;18.00;99.90;;;;;;10522959;28;20051;-55
2024/02/29 15:43:18;;;;;;;4.50;2.85;;;17.80;99.90;;;;;;10519024;28;20070;-55
2024/02/29 15:48:20;;;;;;;4.07;2.47;;;17.80;99.90;;;;;;10522822;28;20134;-56
2024/02/29 15:53:23;;;;;;;2.63;2.00;;;17.60;99.90;;;;;;10521384;28;20134;-55
2024/02/29 15:58:25;;;;;;;3.88;2.50;;;17.80;99.90;;;;;;10523896;28;20456;-51
2024/02/29 16:03:28;;;;;;;3.20;2.05;;;17.70;99.90;;;;;;10521620;28;20074;-57
2024/02/29 16:08:31;;;;;;;4.00;1.83;;;17.70;99.90;;;;;;10521272;28;20048;-61
2024/02/29 16:13:34;;;;;;;3.10;2.10;;;17.70;99.90;;;;;;10525004;28;20117;-55
2024/02/29 16:18:37;;;;;;;3.05;1.83;;;17.80;99.90;;;;;;10523841;28;20051;-55
2024/02/29 16:23:40;;;;;;;2.70;1.95;;;17.80;99.90;;;;;;10522801;28;20044;-56
2024/02/29 16:28:42;;;;;;;2.03;1.77;;;18.00;99.90;;;;;;10520053;28;20095;-57
2024/02/29 16:33:44;;;;;;;3.88;2.55;;;17.90;99.90;;;;;;10521629;28;20051;-55
2024/02/29 16:38:48;;;;;;;1.88;1.60;;;17.90;99.90;;;;;;10523759;28;20035;-55
2024/02/29 16:43:53;;;;;;;4.40;1.92;;;17.90;99.90;;;;;;10523959;28;20708;-57
2024/02/29 16:48:57;;;;;;;4.32;2.22;;;17.60;99.90;;;;;;10522768;28;20059;-58
2024/02/29 16:54:01;;;;;;;3.20;1.77;;;17.60;99.90;;;;;;10524269;28;20044;-56
2024/02/29 16:59:03;;;;;;;3.92;1.63;;;17.40;99.90;;;;;;10514063;28;20035;-56
2024/02/29 17:04:07;;;;;;;8.48;1.52;;;16.70;99.90;;;;;;10521517;28;20583;-57
2024/02/29 17:09:11;;;;;;;4.47;2.30;;;16.90;99.90;;;;;;10516407;28;20288;-55
2024/02/29 17:14:13;;;;;;;2.90;2.00;;;16.30;99.90;;;;;;10511550;28;22543;-57
2024/02/29 17:19:15;;;;;;;4.28;2.42;;;16.00;99.90;;;;;;10521683;28;21399;-58
2024/02/29 17:24:21;;;;;;;2.77;1.77;;;16.30;99.90;;;;;;10527230;28;20134;-59
2024/02/29 17:29:23;;;;;;;5.03;1.92;;;17.10;99.90;;;;;;10527222;28;20055;-56
2024/02/29 17:34:26;;;;;;;4.43;2.10;;;17.20;99.90;;;;;;10529785;28;20048;-54
2024/02/29 17:39:29;;;;;;;3.08;2.10;;;17.50;99.90;;;;;;10528283;28;20168;-56
2024/02/29 17:44:31;;;;;;;4.15;2.90;;;16.80;99.90;;;;;;10528494;28;20059;-56
2024/02/29 17:49:34;;;;;;;4.23;3.10;;;16.20;99.90;;;;;;10530693;28;20048;-54
2024/02/29 17:54:39;;;;;;;3.75;2.70;;;16.50;99.90;;;;;;10525619;28;20082;-56
2024/02/29 17:59:41;;;;;;;3.22;2.58;;;16.30;99.90;;;;;;10527914;28;20048;-57
2024/02/29 18:04:43;;;;;;;5.13;2.83;;;16.20;99.90;;;;;;10525959;27;20051;-58
2024/02/29 18:09:47;;;;;;;4.43;3.17;;;16.00;99.90;;;;;;10524320;28;20054;-57
2024/02/29 18:14:49;;;;;;;3.90;3.17;;;16.40;99.90;;;;;;10529864;28;20135;-54
2024/02/29 18:19:52;;;;;;;5.88;3.88;;;16.00;99.90;;;;;;10529689;28;20100;-56
2024/02/29 18:24:55;;;;;;;7.57;3.50;;;16.30;99.90;;;;;;10530427;28;20410;-56
2024/02/29 18:29:57;;;;;;;6.60;3.22;;;16.20;99.90;;;;;;10530392;28;20055;-57
2024/02/29 18:35:00;;;;;;;4.13;3.20;;;16.30;99.90;;;;;;10527591;28;20095;-57
2024/02/29 18:40:05;;;;;;;4.05;3.13;;;16.30;99.90;;;;;;10526848;28;20481;-56
2024/02/29 18:45:08;;;;;;;4.32;2.50;;;16.20;99.90;;;;;;10530308;28;20462;-55
2024/02/29 18:50:11;;;;;;;4.80;2.80;;;16.40;99.90;;;;;;10523903;28;20063;-55
2024/02/29 18:55:16;;;;;;;4.40;2.55;;;17.00;99.90;;;;;;10528632;28;20077;-58
2024/02/29 19:00:19;;;;;;;3.42;2.50;;;17.10;99.90;;;;;;10529564;28;20051;-55
2024/02/29 19:05:21;;;;;;;;;;;16.70;99.90;;;;;;10528282;28;20426;-54
2024/02/29 19:10:25;;;;;;;4.60;3.42;;;16.90;99.90;;;;;;10520179;28;19955;-57
2024/02/29 19:15:26;;;;;;;5.13;3.35;;;16.70;99.90;;;;;;10528450;28;20051;-55
2024/02/29 19:20:28;;;;;;;3.03;2.73;;;16.80;99.90;;;;;;10530199;28;20423;-55
2024/02/29 19:25:32;;;;;;;3.00;2.70;;;17.00;99.90;;;;;;10523618;28;20052;-57
2024/02/29 19:30:34;;;;;;;4.63;3.00;;;17.30;99.90;;;;;;10525844;28;20052;-56
2024/02/29 19:35:36;;;;;;;5.77;3.13;;;17.50;99.90;;;;;;10523781;28;20137;-55
2024/02/29 19:40:40;;;;;;;7.43;2.30;;;17.40;99.90;;;;;;10525189;28;20496;-57
2024/02/29 19:45:42;;;;;;;4.07;3.25;;;17.20;99.90;;;;;;10524905;28;20051;-53
2024/02/29 19:50:44;;;;;;;3.13;2.43;;;17.50;99.90;;;;;;10529167;28;20407;-55
2024/02/29 19:55:47;;;;;;;2.55;2.10;;;17.70;99.90;;;;;;10528077;28;20058;-57
2024/02/29 20:00:52;;;;;;;2.80;2.50;;;17.70;99.90;;;;;;10525149;28;20063;-59
2024/02/29 20:05:55;;;;;;;2.70;2.35;;;17.80;99.90;;;;;;10521338;28;20192;-58
2024/02/29 20:10:58;;;;;;;2.33;2.13;;;17.60;99.90;;;;;;10525221;28;20077;-59
2024/02/29 20:16:00;;;;;;;2.35;2.13;;;17.70;99.90;;;;;;10522595;28;20043;-57
2024/02/29 20:21:03;;;;;;;3.80;1.90;;;17.60;99.90;;;;;;10521043;28;20051;-58
2024/02/29 20:26:06;;;;;;;1.95;1.65;;;17.60;99.90;;;;;;10521669;28;20090;-53
2024/02/29 20:31:08;;;;;;;3.35;2.25;;;17.50;99.90;;;;;;10521880;28;20072;-55
2024/02/29 20:36:10;;;;;;;3.38;2.40;;;17.50;99.90;;;;;;10519550;28;20224;-58
2024/02/29 20:41:14;;;;;;;2.60;2.38;;;17.30;99.90;;;;;;10515890;28;20052;-58
2024/02/29 20:46:16;;;;;;;2.60;2.28;;;17.00;99.90;;;;;;10522785;28;20050;-56
2024/02/29 20:51:18;;;;;;;2.55;2.05;;;17.10;99.90;;;;;;10514569;28;20060;-58
2024/02/29 20:56:22;;;;;;;3.15;2.65;;;17.30;99.90;;;;;;10520945;28;20047;-55
2024/02/29 21:01:24;;;;;;;3.00;2.70;;;17.30;99.90;;;;;;10528281;28;20208;-57
2024/02/29 21:06:26;;;;;;;4.47;3.20;;;17.50;99.90;;;;;;10528377;28;20837;-57
2024/02/29 21:11:29;;;;;;;5.13;3.22;;;17.50;99.90;;;;;;10524761;28;20169;-59
2024/02/29 21:16:33;;;;;;;4.22;3.50;;;17.50;99.90;;;;;;10531938;28;20055;-58
2024/02/29 21:21:35;;;;;;;4.72;3.13;;;17.10;99.90;;;;;;10531565;28;20055;-57
2024/02/29 21:26:39;;;;;;;5.43;4.47;;;17.20;99.90;;;;;;10533729;28;20048;-56
2024/02/29 21:31:41;;;;;;;3.63;3.03;;;17.10;99.90;;;;;;10534579;28;20062;-54
2024/02/29 21:36:43;;;;;;;3.65;3.35;;;17.50;99.90;;;;;;10532136;28;20142;-55
2024/02/29 21:41:46;;;;;;;5.28;3.42;;;17.20;99.90;;;;;;10529257;28;20071;-54
2024/02/29 21:46:48;;;;;;;7.95;3.47;;;17.00;99.90;;;;;;10531538;28;20929;-57
2024/02/29 21:51:52;;;;;;;3.97;3.50;;;17.30;99.90;;;;;;10531265;28;20056;-55
2024/02/29 21:56:55;;;;;;;6.18;4.13;;;17.40;99.90;;;;;;10535734;28;20048;-59
2024/02/29 22:01:57;;;;;;;5.10;4.18;;;17.00;99.90;;;;;;10535612;28;20123;-56
2024/02/29 22:06:59;;;;;;;5.75;4.57;;;17.10;99.90;;;;;;10534503;28;20192;-56
2024/02/29 22:12:03;;;;;;;3.40;3.10;;;16.70;99.90;;;;;;10536239;28;20055;-57
2024/02/29 22:17:05;;;;;;;5.40;4.88;;;17.40;99.90;;;;;;10536089;28;20054;-56
2024/02/29 22:22:07;;;;;;;6.40;5.05;;;17.10;99.90;;;;;;10534514;28;20499;-57
2024/02/29 22:27:12;;;;;;;9.15;5.40;;;16.90;99.90;;;;;;10533667;28;20109;-56
2024/02/29 22:32:14;;;;;;;5.15;4.65;;;16.90;99.90;;;;;;10531972;27;20048;-57
2024/02/29 22:37:16;;;;;;;5.03;4.40;;;17.10;99.90;;;;;;10532579;28;20089;-55
2024/02/29 22:42:20;;;;;;;5.22;4.07;;;17.20;99.90;;;;;;10540746;28;20568;-56
2024/02/29 22:47:21;;;;;;;4.82;3.97;;;17.30;99.90;;;;;;10529439;28;20063;-58
2024/02/29 22:52:23;;;;;;;8.07;4.37;;;17.30;99.90;;;;;;10528597;28;20052;-57
2024/02/29 22:57:27;;;;;;;4.63;4.10;;;17.20;99.90;;;;;;10523996;27;20112;-59
2024/02/29 23:02:29;;;;;;;4.82;3.85;;;17.20;99.90;;;;;;10533452;28;20190;-56
2024/02/29 23:07:31;;;;;;;4.35;3.40;;;17.00;99.90;;;;;;10532923;28;20156;-61
2024/02/29 23:12:34;;;;;;;4.80;2.88;;;17.30;99.90;;;;;;10534425;28;20472;-57
2024/02/29 23:17:36;;;;;;;6.47;4.22;;;17.30;99.90;;;;;;10530067;28;20046;-57
2024/02/29 23:22:38;;;;;;;3.97;3.23;;;17.10;99.90;;;;;;10526126;28;20066;-57
2024/02/29 23:27:42;;;;;;;5.90;3.22;;;17.10;99.90;;;;;;10525657;28;20044;-55
2024/02/29 23:32:44;;;;;;;3.95;3.53;;;16.90;99.90;;;;;;10526931;28;20056;-57
2024/02/29 23:37:46;;;;;;;5.30;3.55;;;17.00;99.90;;;;;;10528879;28;20044;-57
2024/02/29 23:42:49;;;;;;;4.00;3.33;;;17.00;99.90;;;;;;10529759;28;20051;-58
2024/02/29 23:47:52;;;;;;;5.43;3.72;;;17.00;99.90;;;;;;10524074;28;20136;-56
2024/02/29 23:52:54;;;;;;;4.55;3.42;;;16.80;99.90;;;;;;10525280;28;20052;-56
2024/02/29 23:57:58;;;;;;;5.30;3.60;;;16.90;99.90;;;;;;10528067;28;20052;-55
